Philipsburg, MT (59858)

10:06 PM MST on February 11, 2016 (GMT -0700)
Lost Creek | | Change Station
CLOSE
Current Station
Personal Weather Station
Location: Anaconda, MT
Elevation: 5440 ft
Nearby Weather Stations

Elev 5440 ft 46.16 °N, 112.95 °W | Updated 3 minutes ago

Overcast
Overcast
37.8 °F
Feels Like 38 °F
N
2.7
Wind Variable Wind from South

Today
High -- | Low -- °F
--% Chance of Precip.
Yesterday
High -- | Low -- °F
Precip. -- in
Pressure 30.34 in
Visibility 10.0 miles
Clouds Overcast 5000 ft
Windchill 38 °F
Dew Point 33 °F
Humidity 82%
Rainfall 0.38 in
Snow Depth Not available.
7:43 AM 5:52 PM
Waxing Crescent, 17% visible
METAR KBTM 120453Z AUTO 14005KT 10SM OVC050 01/M01 A3026 RMK AO2 SLP272 T00111011
Pressure 30.34 in
Visibility 10.0 miles
Clouds Overcast 5000 ft
Windchill 38 °F
Dew Point 33 °F
Humidity 82%
Rainfall 0.38 in
Snow Depth Not available.
7:43 AM 5:52 PM
Waxing Crescent, 17% visible
METAR KBTM 120453Z AUTO 14005KT 10SM OVC050 01/M01 A3026 RMK AO2 SLP272 T00111011

10-Day Weather Forecast

Almanac

Astronomy

Feb. 11, 2016 Rise Set
Actual Time
Civil Twilight
Nautical Twilight
Astronomical Twilight
Moon
Length of Visible Light
Length of Day
Tomorrow will be .
, % of the Moon is Illuminated

Today's Extremes

State Highs State Lows

Community

WunderPhotos

Upload Photos

1,892,265 photos uploaded!

WunderBlog® & News

Nearby

Air Quality

  Air Quality AQ Index Pollutant
Not available.

Snow Depth

Station Depth Elevation

Earthquake Activity

City Distance Mag. Time & Date
Minimum magnitude displayed is 2.5.

Coastal Water Temperatures

Place Temperature

Stations

Nearby Weather Stations

Station Location Temp. Windchill Dew Point Humidity Wind Precip. Elev Updated Type
                   

Watches & Warnings

There are currently no watches in effect.